LIPL/QBS METAR and TAF weather

Enter ICAO airport designator
Station Type Date Time Source
LIPL METAR 2019/02/22 21:55 UTC NOAA

LIPL 222155Z 09008KT 5000 BR NSC 07/05 Q1026 RMK SKC VIS MIN 5000 WIND THR31 09009KT WIND THR13 07005KT WHT


Station Type Date Time Source
LIPL Decoded METAR 2019/02/22 21:55 UTC NOAA

Brescia / Ghedi, Italy (LIPL) 45-25N 010-17E 97M
Feb 22, 2019 - 04:55 PM EST / 2019.02.22 2155 UTC
Wind: from the E (090 degrees) at 9 MPH (8 KT):0
Visibility: 3 mile(s):0
Weather: mist
Temperature: 44 F (7 C)
Dew Point: 41 F (5 C)
Relative Humidity: 87%
Pressure (altimeter): 30.30 in. Hg (1026 hPa)
ob: LIPL 222155Z 09008KT 5000 BR NSC 07/05 Q1026 RMK SKC VIS MIN 5000 WIND THR31 09009KT WIND THR13 07005KT WHT
cycle: 22

Station Type Date Time Source
LIPL TAF 2018/06/14 09:48 UTC NOAA

TAF TAF LIPL 140800Z 1409/1421 VRB05KT 9999 SCT035 SCT080


Example: see airport list